Flugplatz Wolfhagen Graner Berg

Für EDGW sind keine METAR/TAF Berichte vorhanden.
Es werden die Flugwettermeldungen vom Flugplatz Kassel-Calden in 17 km Entfernung angezeigt.

Bericht für EDVK

vom 25.08. um 19:20 UTC

Wind 3 kt aus 280°

Sichtweite 10 km oder mehr

gute Sicht, keine Wolken < 5000 ft, keine CB, keine Wettererscheinungen (CAVOK)

Temperatur 24.0°C

Taupunkt 17.0°C

Luftfeuchtigkeit 65%

Luftdruck 1020 hPa

EDVK 251920Z 28003KT CAVOK 24/17 Q1020

Prognose für EDVK

vom 25.08. um 00:00 UTC

Zwischen 00:00 UTC und 00:00 UTC

Wind 3 kt aus 60°

Sichtweite 10 km oder mehr

keine signifikanten Wettererscheinungen

keine Wolken

TAF EDVK 251700Z 2518/2603 06003KT CAVOK
Impressum